createdAt,value
2018-12-04T00:00:40.681Z,1011.7
2018-12-04T00:01:40.885Z,1011.64
2018-12-04T00:02:40.762Z,1011.66
2018-12-04T00:03:41.034Z,1011.57
2018-12-04T00:04:40.630Z,1011.59
2018-12-04T00:05:40.782Z,1011.56
2018-12-04T00:06:40.703Z,1011.65
2018-12-04T00:07:40.818Z,1011.57
2018-12-04T00:08:40.920Z,1011.5
2018-12-04T00:09:41.805Z,1011.49
2018-12-04T00:10:40.913Z,1011.54
2018-12-04T00:11:40.745Z,1011.55
2018-12-04T00:12:40.983Z,1011.53
2018-12-04T00:13:40.719Z,1011.61
2018-12-04T00:14:40.748Z,1011.61
2018-12-04T00:15:40.636Z,1011.66
2018-12-04T00:16:41.070Z,1011.62
2018-12-04T00:17:40.978Z,1011.66
2018-12-04T00:18:41.005Z,1011.61
2018-12-04T00:19:41.126Z,1011.62
2018-12-04T00:20:41.077Z,1011.63
2018-12-04T00:21:40.977Z,1011.67
2018-12-04T00:22:40.804Z,1011.61
2018-12-04T00:23:40.591Z,1011.59
2018-12-04T00:24:40.653Z,1011.61
2018-12-04T00:25:40.725Z,1011.65
2018-12-04T00:26:41.065Z,1011.61
2018-12-04T00:27:40.789Z,1011.58
2018-12-04T00:28:40.930Z,1011.62
2018-12-04T00:29:41.099Z,1011.67
2018-12-04T00:30:41.723Z,1011.7
2018-12-04T00:31:40.996Z,1011.73
2018-12-04T00:32:40.816Z,1011.76
2018-12-04T00:33:40.923Z,1011.77
2018-12-04T00:34:41.128Z,1011.76
2018-12-04T00:35:40.802Z,1011.81
2018-12-04T00:36:40.699Z,1011.78
2018-12-04T00:37:41.130Z,1011.84
2018-12-04T00:38:40.667Z,1011.82
2018-12-04T00:39:41.052Z,1011.86
2018-12-04T00:40:41.171Z,1011.84
2018-12-04T00:41:40.807Z,1011.84
2018-12-04T00:42:40.663Z,1011.86
2018-12-04T00:43:40.688Z,1011.83
2018-12-04T00:44:40.846Z,1011.9
2018-12-04T00:45:41.025Z,1011.89
2018-12-04T00:46:41.069Z,1011.97
2018-12-04T00:47:41.336Z,1011.93
2018-12-04T00:48:41.077Z,1011.93
2018-12-04T00:49:40.707Z,1011.96
2018-12-04T00:50:40.725Z,1012.01
2018-12-04T00:51:40.991Z,1012.02
2018-12-04T00:52:40.854Z,1012.07
2018-12-04T00:53:41.103Z,1012.07
2018-12-04T00:54:40.985Z,1012.1
2018-12-04T00:55:41.059Z,1012.07
2018-12-04T00:56:40.702Z,1012.12
2018-12-04T00:57:41.183Z,1012.18
2018-12-04T00:58:41.092Z,1012.18
2018-12-04T00:59:40.623Z,1012.25
2018-12-04T01:00:41.466Z,1012.22
2018-12-04T01:01:40.719Z,1012.28
2018-12-04T01:02:41.153Z,1012.3
2018-12-04T01:03:40.701Z,1012.3
2018-12-04T01:04:41.040Z,1012.38
2018-12-04T01:05:40.719Z,1012.39
2018-12-04T01:06:41.066Z,1012.44
2018-12-04T01:07:41.381Z,1012.41
2018-12-04T01:08:41.102Z,1012.44
2018-12-04T01:09:40.756Z,1012.44
2018-12-04T01:10:40.724Z,1012.41
2018-12-04T01:11:40.877Z,1012.43
2018-12-04T01:12:40.880Z,1012.42
2018-12-04T01:13:41.342Z,1012.41
2018-12-04T01:14:40.896Z,1012.45
2018-12-04T01:15:40.917Z,1012.47
2018-12-04T01:16:40.732Z,1012.48
2018-12-04T01:17:41.035Z,1012.51
2018-12-04T01:18:41.351Z,1012.56
2018-12-04T01:19:41.070Z,1012.58
2018-12-04T01:20:40.795Z,1012.58
2018-12-04T01:21:41.060Z,1012.6
2018-12-04T01:22:40.757Z,1012.64
2018-12-04T01:23:40.906Z,1012.58
2018-12-04T01:24:41.381Z,1012.58
2018-12-04T01:25:41.101Z,1012.64
2018-12-04T01:26:40.823Z,1012.63
2018-12-04T01:27:41.005Z,1012.65
2018-12-04T01:28:40.834Z,1012.61
2018-12-04T01:29:41.122Z,1012.6
2018-12-04T01:30:40.988Z,1012.61
2018-12-04T01:31:41.549Z,1012.63
2018-12-04T01:32:40.674Z,1012.62
2018-12-04T01:33:40.938Z,1012.63
2018-12-04T01:34:40.987Z,1012.64
2018-12-04T01:35:40.799Z,1012.64
2018-12-04T01:36:40.869Z,1012.7
2018-12-04T01:37:40.658Z,1012.66
2018-12-04T01:38:40.878Z,1012.69
2018-12-04T01:39:40.664Z,1012.71
2018-12-04T01:40:41.097Z,1012.67
2018-12-04T01:41:40.635Z,1012.71
2018-12-04T01:42:40.753Z,1012.72
2018-12-04T01:43:40.826Z,1012.74
2018-12-04T01:44:40.657Z,1012.73
2018-12-04T01:45:40.658Z,1012.75
2018-12-04T01:46:40.756Z,1012.84
2018-12-04T01:47:40.838Z,1012.82
2018-12-04T01:48:40.655Z,1012.86
2018-12-04T01:49:40.780Z,1012.9
2018-12-04T01:50:40.671Z,1012.84
2018-12-04T01:51:40.810Z,1012.92
2018-12-04T01:52:40.954Z,1012.92
2018-12-04T01:53:40.680Z,1012.96
2018-12-04T01:54:40.771Z,1012.96
2018-12-04T01:55:40.619Z,1013.02
2018-12-04T01:56:40.840Z,1012.92
2018-12-04T01:57:41.100Z,1012.97
2018-12-04T01:58:40.848Z,1012.95
2018-12-04T01:59:40.927Z,1013
2018-12-04T02:00:41.028Z,1012.94
2018-12-04T02:01:40.795Z,1012.99
2018-12-04T02:02:40.669Z,1013.01
2018-12-04T02:03:40.895Z,1013
2018-12-04T02:04:40.657Z,1013.05
2018-12-04T02:05:40.754Z,1013.11
2018-12-04T02:06:40.948Z,1013.03
2018-12-04T02:07:40.694Z,1013.1
2018-12-04T02:08:41.195Z,1013.13
2018-12-04T02:09:40.880Z,1013.08
2018-12-04T02:10:40.555Z,1013.13
2018-12-04T02:11:40.909Z,1013.16
2018-12-04T02:12:40.901Z,1013.15
2018-12-04T02:13:40.986Z,1013.15
2018-12-04T02:14:41.032Z,1013.16
2018-12-04T02:15:41.022Z,1013.21
2018-12-04T02:16:41.148Z,1013.15
2018-12-04T02:17:41.047Z,1013.15
2018-12-04T02:18:40.843Z,1013.22
2018-12-04T02:19:40.768Z,1013.29
2018-12-04T02:20:40.770Z,1013.22
2018-12-04T02:21:41.287Z,1013.22
2018-12-04T02:22:40.915Z,1013.19
2018-12-04T02:23:40.766Z,1013.26
2018-12-04T02:24:41.024Z,1013.21
2018-12-04T02:25:41.232Z,1013.22
2018-12-04T02:26:41.545Z,1013.26
2018-12-04T02:27:40.648Z,1013.18
2018-12-04T02:28:40.805Z,1013.19
2018-12-04T02:29:41.469Z,1013.2
2018-12-04T02:30:40.847Z,1013.21
2018-12-04T02:31:40.658Z,1013.24
2018-12-04T02:32:41.346Z,1013.22
2018-12-04T02:33:40.663Z,1013.28
2018-12-04T02:34:40.957Z,1013.25
2018-12-04T02:35:40.878Z,1013.25
2018-12-04T02:36:41.248Z,1013.24
2018-12-04T02:37:40.801Z,1013.21
2018-12-04T02:38:41.907Z,1013.29
2018-12-04T02:39:40.903Z,1013.31
2018-12-04T02:40:40.939Z,1013.28
2018-12-04T02:41:40.920Z,1013.37
2018-12-04T02:42:40.842Z,1013.38
2018-12-04T02:43:40.795Z,1013.38
2018-12-04T02:44:40.563Z,1013.37
2018-12-04T02:45:40.949Z,1013.37
2018-12-04T02:46:40.526Z,1013.38
2018-12-04T02:47:40.694Z,1013.41
2018-12-04T02:48:40.768Z,1013.41
2018-12-04T02:49:40.981Z,1013.45
2018-12-04T02:50:40.993Z,1013.5
2018-12-04T02:51:40.972Z,1013.47
2018-12-04T02:52:40.836Z,1013.47
2018-12-04T02:53:40.684Z,1013.53
2018-12-04T02:54:41.128Z,1013.51
2018-12-04T02:55:40.765Z,1013.55
2018-12-04T02:56:40.696Z,1013.49
2018-12-04T02:57:41.813Z,1013.5
2018-12-04T02:58:40.771Z,1013.49
2018-12-04T02:59:40.728Z,1013.5
2018-12-04T03:00:40.728Z,1013.53
2018-12-04T03:01:40.882Z,1013.56
2018-12-04T03:02:40.788Z,1013.58
2018-12-04T03:03:40.655Z,1013.57
2018-12-04T03:04:40.691Z,1013.63
2018-12-04T03:05:40.577Z,1013.64
2018-12-04T03:06:40.685Z,1013.6
2018-12-04T03:07:41.038Z,1013.58
2018-12-04T03:08:40.857Z,1013.61
2018-12-04T03:09:40.918Z,1013.65
2018-12-04T03:10:40.790Z,1013.68
2018-12-04T03:11:40.619Z,1013.76
2018-12-04T03:12:40.804Z,1013.7
2018-12-04T03:13:40.880Z,1013.69
2018-12-04T03:14:40.842Z,1013.72
2018-12-04T03:15:40.767Z,1013.7
2018-12-04T03:16:40.716Z,1013.67
2018-12-04T03:17:40.761Z,1013.72
2018-12-04T03:18:40.849Z,1013.75
2018-12-04T03:19:40.921Z,1013.72
2018-12-04T03:20:40.987Z,1013.79
2018-12-04T03:21:40.690Z,1013.81
2018-12-04T03:22:40.691Z,1013.81
2018-12-04T03:23:40.709Z,1013.81
2018-12-04T03:24:40.657Z,1013.8
2018-12-04T03:25:40.627Z,1013.83
2018-12-04T03:26:40.658Z,1013.85
2018-12-04T03:27:40.808Z,1013.84
2018-12-04T03:28:40.739Z,1013.87
2018-12-04T03:29:40.708Z,1013.88
2018-12-04T03:30:40.789Z,1013.88
2018-12-04T03:31:40.657Z,1013.97
2018-12-04T03:32:40.590Z,1013.97
2018-12-04T03:33:40.639Z,1014.01
2018-12-04T03:34:40.663Z,1013.99
2018-12-04T03:35:41.011Z,1014.04
2018-12-04T03:36:41.090Z,1014.1
2018-12-04T03:37:40.744Z,1014.07
2018-12-04T03:38:40.665Z,1014.13
2018-12-04T03:39:40.732Z,1014.14
2018-12-04T03:40:40.840Z,1014.18
2018-12-04T03:41:41.203Z,1014.16
2018-12-04T03:42:40.838Z,1014.27
2018-12-04T03:43:40.694Z,1014.22
2018-12-04T03:44:40.636Z,1014.3
2018-12-04T03:45:40.660Z,1014.3
2018-12-04T03:46:40.801Z,1014.32
2018-12-04T03:47:40.772Z,1014.38
2018-12-04T03:48:40.770Z,1014.45
2018-12-04T03:49:40.704Z,1014.52
2018-12-04T03:50:40.813Z,1014.56
2018-12-04T03:51:40.708Z,1014.52
2018-12-04T03:52:40.976Z,1014.55
2018-12-04T03:53:40.577Z,1014.57
2018-12-04T03:54:41.587Z,1014.61
2018-12-04T03:55:40.908Z,1014.58
2018-12-04T03:56:40.992Z,1014.58
2018-12-04T03:57:40.720Z,1014.58
2018-12-04T03:58:41.084Z,1014.6
2018-12-04T03:59:40.796Z,1014.6
2018-12-04T04:00:41.076Z,1014.69
2018-12-04T04:01:40.789Z,1014.62
2018-12-04T04:02:40.620Z,1014.57
2018-12-04T04:03:40.671Z,1014.64
2018-12-04T04:04:40.946Z,1014.63
2018-12-04T04:05:40.722Z,1014.67
2018-12-04T04:06:41.619Z,1014.63
2018-12-04T04:07:40.937Z,1014.72
2018-12-04T04:08:40.721Z,1014.74
2018-12-04T04:09:40.622Z,1014.7
2018-12-04T04:10:40.703Z,1014.68
2018-12-04T04:11:41.150Z,1014.74
2018-12-04T04:12:41.584Z,1014.72
2018-12-04T04:13:40.849Z,1014.75
2018-12-04T04:14:40.857Z,1014.77
2018-12-04T04:15:41.288Z,1014.77
2018-12-04T04:16:40.794Z,1014.74
2018-12-04T04:17:40.452Z,1014.76
2018-12-04T04:18:41.504Z,1014.78
2018-12-04T04:19:41.151Z,1014.84
2018-12-04T04:20:40.660Z,1014.82
2018-12-04T04:21:40.908Z,1014.85
2018-12-04T04:22:40.819Z,1014.83
2018-12-04T04:23:40.809Z,1014.88
2018-12-04T04:24:40.840Z,1014.9
2018-12-04T04:25:40.691Z,1014.98
2018-12-04T04:26:40.664Z,1014.95
2018-12-04T04:27:40.891Z,1014.94
2018-12-04T04:28:40.926Z,1014.99
2018-12-04T04:29:40.573Z,1015.01
2018-12-04T04:30:40.988Z,1015.01
2018-12-04T04:31:40.879Z,1015.08
2018-12-04T04:32:40.630Z,1015.11
2018-12-04T04:33:40.698Z,1015.12
2018-12-04T04:34:40.582Z,1015.15
2018-12-04T04:35:40.714Z,1015.12
2018-12-04T04:36:40.586Z,1015.18
2018-12-04T04:37:40.761Z,1015.23
2018-12-04T04:38:40.806Z,1015.23
2018-12-04T04:39:40.845Z,1015.3
2018-12-04T04:40:41.094Z,1015.3
2018-12-04T04:41:40.850Z,1015.31
2018-12-04T04:42:40.806Z,1015.34
2018-12-04T04:43:40.650Z,1015.39
2018-12-04T04:44:40.476Z,1015.4
2018-12-04T04:45:40.782Z,1015.38
2018-12-04T04:46:40.706Z,1015.43
2018-12-04T04:47:40.735Z,1015.44
2018-12-04T04:48:40.633Z,1015.52
2018-12-04T04:49:40.830Z,1015.54
2018-12-04T04:50:40.712Z,1015.61
2018-12-04T04:51:40.694Z,1015.61
2018-12-04T04:52:40.567Z,1015.61
2018-12-04T04:53:40.456Z,1015.6
2018-12-04T04:54:40.656Z,1015.64
2018-12-04T04:55:40.947Z,1015.64
2018-12-04T04:56:40.427Z,1015.73
2018-12-04T04:57:40.735Z,1015.72
2018-12-04T04:58:40.782Z,1015.75
2018-12-04T04:59:40.829Z,1015.72
2018-12-04T05:00:40.727Z,1015.72
2018-12-04T05:01:40.658Z,1015.79
2018-12-04T05:02:40.635Z,1015.79
2018-12-04T05:03:40.623Z,1015.74
2018-12-04T05:04:40.627Z,1015.86
2018-12-04T05:05:40.614Z,1015.84
2018-12-04T05:06:40.662Z,1015.84
2018-12-04T05:07:40.938Z,1015.92
2018-12-04T05:08:40.861Z,1015.9
2018-12-04T05:09:40.641Z,1015.94
2018-12-04T05:10:40.654Z,1015.88
2018-12-04T05:11:40.717Z,1015.9
2018-12-04T05:12:41.010Z,1015.97
2018-12-04T05:13:40.593Z,1015.97
2018-12-04T05:14:40.798Z,1015.95
2018-12-04T05:15:40.883Z,1015.96
2018-12-04T05:16:40.895Z,1015.98
2018-12-04T05:17:40.516Z,1016.01
2018-12-04T05:18:40.750Z,1015.98
2018-12-04T05:19:40.943Z,1016.08
2018-12-04T05:20:41.042Z,1016.06
2018-12-04T05:21:40.802Z,1016.09
2018-12-04T05:22:40.768Z,1016.07
2018-12-04T05:23:41.055Z,1016.12
2018-12-04T05:24:40.668Z,1016.09
2018-12-04T05:25:40.906Z,1016.1
2018-12-04T05:26:40.843Z,1016.13
2018-12-04T05:27:40.987Z,1016.16
2018-12-04T05:28:40.892Z,1016.15
2018-12-04T05:29:40.788Z,1016.17
2018-12-04T05:30:40.835Z,1016.19
2018-12-04T05:31:40.846Z,1016.23
2018-12-04T05:32:40.734Z,1016.23
2018-12-04T05:33:40.630Z,1016.23
2018-12-04T05:34:40.869Z,1016.25
2018-12-04T05:35:41.088Z,1016.25
2018-12-04T05:36:40.701Z,1016.2
2018-12-04T05:37:40.928Z,1016.25
2018-12-04T05:38:40.695Z,1016.28
2018-12-04T05:39:40.953Z,1016.28
2018-12-04T05:40:40.552Z,1016.34
2018-12-04T05:41:40.926Z,1016.32
2018-12-04T05:42:40.985Z,1016.31
2018-12-04T05:43:41.097Z,1016.32
2018-12-04T05:44:40.579Z,1016.34
2018-12-04T05:45:40.896Z,1016.32
2018-12-04T05:46:40.459Z,1016.35
2018-12-04T05:47:40.487Z,1016.37
2018-12-04T05:48:40.694Z,1016.37
2018-12-04T05:49:40.784Z,1016.4
2018-12-04T05:50:40.838Z,1016.5
2018-12-04T05:51:41.064Z,1016.45
2018-12-04T05:52:40.746Z,1016.51
2018-12-04T05:53:40.652Z,1016.51
2018-12-04T05:54:40.873Z,1016.56
2018-12-04T05:55:40.879Z,1016.59
2018-12-04T05:56:40.461Z,1016.6
2018-12-04T05:57:40.819Z,1016.64
2018-12-04T05:58:41.172Z,1016.68
2018-12-04T05:59:40.648Z,1016.63
2018-12-04T06:00:40.812Z,1016.66
2018-12-04T06:01:41.079Z,1016.67
2018-12-04T06:02:40.671Z,1016.67
2018-12-04T06:03:41.029Z,1016.64
2018-12-04T06:04:40.726Z,1016.68
2018-12-04T06:05:40.749Z,1016.67
2018-12-04T06:06:40.794Z,1016.72
2018-12-04T06:07:40.545Z,1016.73
2018-12-04T06:08:40.704Z,1016.82
2018-12-04T06:09:41.127Z,1016.82
2018-12-04T06:10:40.637Z,1016.84
2018-12-04T06:11:40.789Z,1016.93
2018-12-04T06:12:40.927Z,1016.83
2018-12-04T06:13:40.674Z,1016.89
2018-12-04T06:14:40.558Z,1016.84
2018-12-04T06:15:40.913Z,1016.9
2018-12-04T06:16:41.122Z,1016.94
2018-12-04T06:17:41.141Z,1016.94
2018-12-04T06:18:40.975Z,1016.99
2018-12-04T06:19:40.646Z,1017.01
2018-12-04T06:20:40.509Z,1017.02
2018-12-04T06:21:40.624Z,1017.06
2018-12-04T06:22:40.766Z,1017.06
2018-12-04T06:23:41.077Z,1017.07
2018-12-04T06:24:40.968Z,1017.11
2018-12-04T06:25:40.616Z,1017.14
2018-12-04T06:26:40.960Z,1017.19
2018-12-04T06:27:40.685Z,1017.25
2018-12-04T06:28:40.602Z,1017.26
2018-12-04T06:29:40.629Z,1017.25
2018-12-04T06:30:40.717Z,1017.24
2018-12-04T06:31:40.755Z,1017.33
2018-12-04T06:32:40.517Z,1017.33
2018-12-04T06:33:40.472Z,1017.34
2018-12-04T06:34:40.765Z,1017.41
2018-12-04T06:35:40.667Z,1017.45
2018-12-04T06:36:40.765Z,1017.48
2018-12-04T06:37:40.734Z,1017.47
2018-12-04T06:38:40.617Z,1017.48
2018-12-04T06:39:40.623Z,1017.48
2018-12-04T06:40:40.703Z,1017.49
2018-12-04T06:41:40.692Z,1017.49
2018-12-04T06:42:40.713Z,1017.57
2018-12-04T06:43:40.682Z,1017.62
2018-12-04T06:44:40.634Z,1017.63
2018-12-04T06:45:40.650Z,1017.66
2018-12-04T06:46:40.729Z,1017.63
2018-12-04T06:47:40.667Z,1017.7
2018-12-04T06:48:40.833Z,1017.72
2018-12-04T06:49:40.647Z,1017.76
2018-12-04T06:50:40.976Z,1017.78
2018-12-04T06:51:40.645Z,1017.84
2018-12-04T06:52:40.983Z,1017.8
2018-12-04T06:53:41.053Z,1017.82
2018-12-04T06:54:40.697Z,1017.85
2018-12-04T06:55:41.044Z,1017.89
2018-12-04T06:56:40.620Z,1017.93
2018-12-04T06:57:41.005Z,1017.95
2018-12-04T06:58:40.926Z,1017.99
2018-12-04T06:59:40.357Z,1018.06
2018-12-04T07:00:40.752Z,1018.1
2018-12-04T07:01:40.827Z,1018.1
2018-12-04T07:02:40.759Z,1018.13
2018-12-04T07:03:40.949Z,1018.14
2018-12-04T07:04:40.757Z,1018.23
2018-12-04T07:05:40.845Z,1018.22
2018-12-04T07:06:40.728Z,1018.24
2018-12-04T07:07:40.676Z,1018.25
2018-12-04T07:08:40.925Z,1018.28
2018-12-04T07:09:40.682Z,1018.31
2018-12-04T07:10:40.633Z,1018.36
2018-12-04T07:11:40.426Z,1018.4
2018-12-04T07:12:41.001Z,1018.42
2018-12-04T07:13:41.248Z,1018.38
2018-12-04T07:14:40.846Z,1018.38
2018-12-04T07:15:40.636Z,1018.46
2018-12-04T07:16:40.527Z,1018.52
2018-12-04T07:17:41.176Z,1018.56
2018-12-04T07:18:40.759Z,1018.52
2018-12-04T07:19:40.595Z,1018.53
2018-12-04T07:20:41.366Z,1018.58
2018-12-04T07:21:41.352Z,1018.61
2018-12-04T07:22:40.805Z,1018.63
2018-12-04T07:23:41.095Z,1018.62
2018-12-04T07:24:40.889Z,1018.61
2018-12-04T07:25:40.543Z,1018.62
2018-12-04T07:26:40.594Z,1018.61
2018-12-04T07:27:40.711Z,1018.58
2018-12-04T07:28:40.937Z,1018.64
2018-12-04T07:29:40.789Z,1018.59
2018-12-04T07:30:41.070Z,1018.66
2018-12-04T07:31:40.862Z,1018.67
2018-12-04T07:32:40.622Z,1018.61
2018-12-04T07:33:40.774Z,1018.63
2018-12-04T07:34:40.686Z,1018.62
2018-12-04T07:35:40.895Z,1018.67
2018-12-04T07:36:40.795Z,1018.71
2018-12-04T07:37:40.494Z,1018.73
2018-12-04T07:38:40.798Z,1018.76
2018-12-04T07:39:40.872Z,1018.78
2018-12-04T07:40:40.631Z,1018.82
2018-12-04T07:41:40.918Z,1018.85
2018-12-04T07:42:40.849Z,1018.85
2018-12-04T07:43:40.775Z,1018.9
2018-12-04T07:44:40.443Z,1018.88
2018-12-04T07:45:41.122Z,1018.88
2018-12-04T07:46:40.850Z,1018.94
2018-12-04T07:47:40.959Z,1018.89
2018-12-04T07:48:40.657Z,1018.88
2018-12-04T07:49:40.907Z,1018.9
2018-12-04T07:50:40.984Z,1018.98
2018-12-04T07:51:40.987Z,1018.99
2018-12-04T07:52:40.618Z,1019
2018-12-04T07:53:40.637Z,1019.07
2018-12-04T07:54:40.604Z,1019.06
2018-12-04T07:55:40.542Z,1019.15
2018-12-04T07:56:40.488Z,1019.15
2018-12-04T07:57:40.580Z,1019.22
2018-12-04T07:58:40.915Z,1019.27
2018-12-04T07:59:40.689Z,1019.3
2018-12-04T08:00:40.651Z,1019.37
2018-12-04T08:01:40.951Z,1019.43
2018-12-04T08:02:40.641Z,1019.42
2018-12-04T08:03:40.637Z,1019.36
2018-12-04T08:04:41.205Z,1019.48
2018-12-04T08:05:40.713Z,1019.52
2018-12-04T08:06:40.646Z,1019.55
2018-12-04T08:07:40.632Z,1019.6
2018-12-04T08:08:40.646Z,1019.63
2018-12-04T08:09:40.616Z,1019.63
2018-12-04T08:10:40.623Z,1019.66
2018-12-04T08:11:40.674Z,1019.64
2018-12-04T08:12:40.945Z,1019.66
2018-12-04T08:13:40.553Z,1019.68
2018-12-04T08:14:41.004Z,1019.66
2018-12-04T08:15:40.601Z,1019.72
2018-12-04T08:16:40.430Z,1019.71
2018-12-04T08:17:40.793Z,1019.73
2018-12-04T08:18:40.339Z,1019.79
2018-12-04T08:19:40.699Z,1019.84
2018-12-04T08:20:40.759Z,1019.88
2018-12-04T08:21:40.793Z,1019.9
2018-12-04T08:22:40.416Z,1019.91
2018-12-04T08:23:40.646Z,1019.94
2018-12-04T08:24:40.637Z,1020.04
2018-12-04T08:25:40.403Z,1019.97
2018-12-04T08:26:41.130Z,1020.02
2018-12-04T08:27:40.911Z,1020.04
2018-12-04T08:28:41.358Z,1020.11
2018-12-04T08:29:40.770Z,1020.09
2018-12-04T08:30:40.664Z,1020.14
2018-12-04T08:31:40.720Z,1020.16
2018-12-04T08:32:40.583Z,1020.18
2018-12-04T08:33:40.733Z,1020.25
2018-12-04T08:34:40.689Z,1020.24
2018-12-04T08:35:40.628Z,1020.37
2018-12-04T08:36:40.660Z,1020.32
2018-12-04T08:37:40.938Z,1020.31
2018-12-04T08:38:41.333Z,1020.32
2018-12-04T08:39:40.830Z,1020.34
2018-12-04T08:40:40.368Z,1020.38
2018-12-04T08:41:40.866Z,1020.39
2018-12-04T08:42:40.984Z,1020.42
2018-12-04T08:43:40.742Z,1020.45
2018-12-04T08:44:41.492Z,1020.44
2018-12-04T08:45:40.428Z,1020.47
2018-12-04T08:46:41.071Z,1020.49
2018-12-04T08:47:40.911Z,1020.46
2018-12-04T08:48:40.611Z,1020.47
2018-12-04T08:49:40.718Z,1020.53
2018-12-04T08:50:40.786Z,1020.56
2018-12-04T08:51:40.614Z,1020.57
2018-12-04T08:52:40.710Z,1020.65
2018-12-04T08:53:40.714Z,1020.66
2018-12-04T08:54:40.808Z,1020.7
2018-12-04T08:55:40.761Z,1020.81
2018-12-04T08:56:40.622Z,1020.79
2018-12-04T08:57:41.052Z,1020.82
2018-12-04T08:58:40.336Z,1020.83
2018-12-04T08:59:40.628Z,1020.8
2018-12-04T09:00:40.869Z,1020.88
2018-12-04T09:01:40.410Z,1020.87
2018-12-04T09:02:40.607Z,1020.85
2018-12-04T09:03:40.697Z,1020.93
2018-12-04T09:04:40.462Z,1021
2018-12-04T09:05:41.172Z,1021
2018-12-04T09:06:40.912Z,1021.07
2018-12-04T09:07:40.421Z,1021.02
2018-12-04T09:08:40.669Z,1021.01
2018-12-04T09:09:40.634Z,1021.06
2018-12-04T09:10:40.837Z,1021.07
2018-12-04T09:11:40.756Z,1021.08
2018-12-04T09:12:40.393Z,1021.07
2018-12-04T09:13:40.547Z,1021.13
2018-12-04T09:14:40.460Z,1021.13
2018-12-04T09:15:41.177Z,1021.19
2018-12-04T09:16:40.465Z,1021.16
2018-12-04T09:17:40.899Z,1021.17
2018-12-04T09:18:41.084Z,1021.17
2018-12-04T09:19:40.461Z,1021.17
2018-12-04T09:20:41.190Z,1021.18
2018-12-04T09:21:40.930Z,1021.23
2018-12-04T09:22:40.696Z,1021.23
2018-12-04T09:23:41.091Z,1021.26
2018-12-04T09:24:40.919Z,1021.27
2018-12-04T09:25:40.766Z,1021.28
2018-12-04T09:26:40.565Z,1021.26
2018-12-04T09:27:40.993Z,1021.29
2018-12-04T09:28:40.826Z,1021.27
2018-12-04T09:29:41.014Z,1021.33
2018-12-04T09:30:40.936Z,1021.32
2018-12-04T09:31:40.910Z,1021.37
2018-12-04T09:32:40.725Z,1021.38
2018-12-04T09:33:40.853Z,1021.41
2018-12-04T09:34:40.436Z,1021.43
2018-12-04T09:35:40.810Z,1021.41
2018-12-04T09:36:40.711Z,1021.42
2018-12-04T09:37:40.938Z,1021.45
2018-12-04T09:38:40.902Z,1021.51
2018-12-04T09:39:40.649Z,1021.54
2018-12-04T09:40:40.782Z,1021.49
2018-12-04T09:41:41.206Z,1021.51
2018-12-04T09:42:40.801Z,1021.57
2018-12-04T09:43:40.386Z,1021.63
2018-12-04T09:44:40.677Z,1021.56
2018-12-04T09:45:40.713Z,1021.62
2018-12-04T09:46:40.637Z,1021.69
2018-12-04T09:47:40.388Z,1021.7
2018-12-04T09:48:40.628Z,1021.69
2018-12-04T09:49:40.440Z,1021.74
2018-12-04T09:50:40.739Z,1021.75
2018-12-04T09:51:40.439Z,1021.78
2018-12-04T09:52:40.425Z,1021.78
2018-12-04T09:53:40.679Z,1021.81
2018-12-04T09:54:40.700Z,1021.77
2018-12-04T09:55:40.621Z,1021.76
2018-12-04T09:56:40.749Z,1021.79
2018-12-04T09:57:40.637Z,1021.82
2018-12-04T09:58:40.364Z,1021.89
2018-12-04T09:59:40.910Z,1021.87
2018-12-04T10:00:40.600Z,1021.92
2018-12-04T10:01:40.472Z,1021.89
2018-12-04T10:02:40.681Z,1021.87
2018-12-04T10:03:40.716Z,1021.95
2018-12-04T10:04:40.829Z,1021.94
2018-12-04T10:05:40.436Z,1021.93
2018-12-04T10:06:40.742Z,1021.93
2018-12-04T10:07:40.452Z,1021.91
2018-12-04T10:08:40.777Z,1021.92
2018-12-04T10:09:40.690Z,1021.91
2018-12-04T10:10:40.470Z,1021.97
2018-12-04T10:11:40.784Z,1021.93
2018-12-04T10:12:40.722Z,1021.92
2018-12-04T10:13:40.646Z,1021.94
2018-12-04T10:14:40.477Z,1021.93
2018-12-04T10:15:40.962Z,1021.95
2018-12-04T10:16:43.453Z,1021.98
2018-12-04T10:17:40.693Z,1021.94
2018-12-04T10:18:40.655Z,1021.99
2018-12-04T10:19:40.846Z,1021.99
2018-12-04T10:20:40.612Z,1022.02
2018-12-04T10:21:40.577Z,1022.09
2018-12-04T10:22:40.790Z,1022.08
2018-12-04T10:23:40.630Z,1022.06
2018-12-04T10:24:40.575Z,1022.03
2018-12-04T10:25:41.300Z,1022.08
2018-12-04T10:26:40.719Z,1022.12
2018-12-04T10:27:40.800Z,1022.14
2018-12-04T10:28:41.385Z,1022.1
2018-12-04T10:29:40.857Z,1022.14
2018-12-04T10:30:40.756Z,1022.11
2018-12-04T10:31:40.531Z,1022.13
2018-12-04T10:32:40.665Z,1022.17
2018-12-04T10:33:40.433Z,1022.2
2018-12-04T10:34:40.975Z,1022.18
2018-12-04T10:35:40.468Z,1022.21
2018-12-04T10:36:40.633Z,1022.2
2018-12-04T10:37:40.404Z,1022.24
2018-12-04T10:38:40.496Z,1022.24
2018-12-04T10:39:40.642Z,1022.26
2018-12-04T10:40:40.424Z,1022.26
2018-12-04T10:41:40.739Z,1022.32
2018-12-04T10:42:40.413Z,1022.37
2018-12-04T10:43:41.070Z,1022.31
2018-12-04T10:44:40.669Z,1022.31
2018-12-04T10:45:40.880Z,1022.35
2018-12-04T10:46:41.085Z,1022.38
2018-12-04T10:47:40.566Z,1022.38
2018-12-04T10:48:40.881Z,1022.39
2018-12-04T10:49:40.639Z,1022.44
2018-12-04T10:50:40.945Z,1022.47
2018-12-04T10:51:40.315Z,1022.44
2018-12-04T10:52:41.112Z,1022.48
2018-12-04T10:53:40.408Z,1022.46
2018-12-04T10:54:40.955Z,1022.43
2018-12-04T10:55:40.393Z,1022.47
2018-12-04T10:56:40.749Z,1022.47
2018-12-04T10:57:40.862Z,1022.48
2018-12-04T10:58:40.513Z,1022.54
2018-12-04T10:59:40.651Z,1022.54
2018-12-04T11:00:40.888Z,1022.59
2018-12-04T11:01:41.032Z,1022.56
2018-12-04T11:02:40.793Z,1022.61
2018-12-04T11:03:40.944Z,1022.6
2018-12-04T11:04:40.708Z,1022.62
2018-12-04T11:05:40.343Z,1022.65
2018-12-04T11:06:40.649Z,1022.7
2018-12-04T11:07:40.544Z,1022.72
2018-12-04T11:08:40.534Z,1022.74
2018-12-04T11:09:40.621Z,1022.8
2018-12-04T11:10:40.509Z,1022.79
2018-12-04T11:11:40.373Z,1022.81
2018-12-04T11:12:40.883Z,1022.89
2018-12-04T11:13:40.322Z,1022.81
2018-12-04T11:14:40.351Z,1022.86
2018-12-04T11:15:40.759Z,1022.9
2018-12-04T11:16:40.498Z,1022.93
2018-12-04T11:17:41.328Z,1022.96
2018-12-04T11:18:40.810Z,1022.94
2018-12-04T11:19:41.015Z,1022.96
2018-12-04T11:20:40.778Z,1022.98
2018-12-04T11:21:40.621Z,1022.98
2018-12-04T11:22:40.360Z,1023.01
2018-12-04T11:23:40.432Z,1023.06
2018-12-04T11:24:40.956Z,1023.05
2018-12-04T11:25:40.423Z,1023.09
2018-12-04T11:26:40.763Z,1023.07
2018-12-04T11:27:40.398Z,1023.09
2018-12-04T11:28:41.276Z,1023.08
2018-12-04T11:29:40.477Z,1023.05
2018-12-04T11:30:40.688Z,1023.14
2018-12-04T11:31:40.660Z,1023.13
2018-12-04T11:32:40.926Z,1023.13
2018-12-04T11:33:40.509Z,1023.15
2018-12-04T11:34:40.715Z,1023.07
2018-12-04T11:35:40.739Z,1023.07
2018-12-04T11:36:40.803Z,1023.04
2018-12-04T11:37:40.349Z,1023.09
2018-12-04T11:38:40.994Z,1023.1
2018-12-04T11:39:40.768Z,1023.07
2018-12-04T11:40:40.951Z,1023.14
2018-12-04T11:41:40.561Z,1023.22
2018-12-04T11:42:40.691Z,1023.26
2018-12-04T11:43:40.497Z,1023.22
2018-12-04T11:44:40.690Z,1023.24
2018-12-04T11:45:40.337Z,1023.24
2018-12-04T11:46:40.795Z,1023.22
2018-12-04T11:47:40.892Z,1023.27
2018-12-04T11:48:40.841Z,1023.31
2018-12-04T11:49:40.629Z,1023.3
2018-12-04T11:50:41.145Z,1023.31
2018-12-04T11:51:40.509Z,1023.28
2018-12-04T11:52:40.356Z,1023.32
2018-12-04T11:53:40.508Z,1023.33
2018-12-04T11:54:40.322Z,1023.32
2018-12-04T11:55:41.169Z,1023.35
2018-12-04T11:56:40.818Z,1023.36
2018-12-04T11:57:40.446Z,1023.36
2018-12-04T11:58:40.890Z,1023.42
2018-12-04T11:59:41.321Z,1023.43
2018-12-04T12:00:40.612Z,1023.48
2018-12-04T12:01:40.496Z,1023.5
2018-12-04T12:02:40.421Z,1023.49
2018-12-04T12:03:40.714Z,1023.53
2018-12-04T12:04:40.874Z,1023.56
2018-12-04T12:05:40.553Z,1023.53
2018-12-04T12:06:40.760Z,1023.53
2018-12-04T12:07:40.859Z,1023.58
2018-12-04T12:08:40.769Z,1023.66